Time;durP1;ratioP1;P1;durP2;ratioP2;P2;SDS_P1;SDS_P2;PMS_P1;PMS_P2;Temp;Humidity;BMP_temperature;BMP_pressure;BME280_temperature;BME280_humidity;BME280_pressure;Samples;Min_cycle;Max_cycle;Signal;HPM_P1;HPM_P2
2023/07/20 00:01:49;;;;;;;1.60;1.33;;;18.40;68.00;;;;;;5059288;28;20653;-76
2023/07/20 00:04:16;;;;;;;5.27;1.73;;;18.40;68.30;;;;;;5058839;28;21059;-75
2023/07/20 00:06:42;;;;;;;1.50;1.40;;;18.40;66.90;;;;;;5065930;28;20661;-75
2023/07/20 00:09:09;;;;;;;1.97;1.83;;;18.40;66.70;;;;;;5059698;28;20641;-76
2023/07/20 00:11:38;;;;;;;1.50;1.40;;;18.40;68.50;;;;;;5062741;28;20657;-75
2023/07/20 00:14:05;;;;;;;3.93;2.20;;;18.40;67.50;;;;;;5057001;28;20637;-75
2023/07/20 00:16:33;;;;;;;2.20;1.63;;;18.40;67.60;;;;;;5062227;28;21323;-75
2023/07/20 00:19:00;;;;;;;1.63;1.40;;;18.30;67.10;;;;;;5064988;28;20724;-75
2023/07/20 00:21:27;;;;;;;1.70;1.60;;;18.30;67.20;;;;;;5065010;28;20660;-76
2023/07/20 00:23:54;;;;;;;1.37;1.27;;;18.30;67.80;;;;;;5062215;28;21186;-75
2023/07/20 00:26:21;;;;;;;1.50;1.30;;;18.30;68.50;;;;;;5058008;28;20661;-75
2023/07/20 00:28:47;;;;;;;2.33;1.53;;;18.20;67.90;;;;;;5061289;28;20618;-75
2023/07/20 00:31:14;;;;;;;1.53;1.43;;;18.10;69.20;;;;;;5059359;28;20988;-75
2023/07/20 00:33:42;;;;;;;2.37;1.87;;;18.00;69.70;;;;;;5058743;28;20655;-76
2023/07/20 00:36:09;;;;;;;1.80;1.70;;;17.90;69.60;;;;;;5065027;28;20700;-76
2023/07/20 00:38:36;;;;;;;1.80;1.70;;;17.80;70.00;;;;;;5051501;28;21179;-76
2023/07/20 00:41:02;;;;;;;1.67;1.50;;;17.80;70.50;;;;;;5063180;28;20660;-76
2023/07/20 00:43:29;;;;;;;2.40;2.17;;;17.70;69.90;;;;;;5059769;28;20634;-75
2023/07/20 00:45:56;;;;;;;1.67;1.47;;;17.70;70.40;;;;;;5059144;28;21016;-75
2023/07/20 00:48:24;;;;;;;1.90;1.80;;;17.70;70.30;;;;;;5061857;28;20632;-75
2023/07/20 00:50:52;;;;;;;2.07;1.97;;;17.60;69.70;;;;;;5060998;28;20650;-75
2023/07/20 00:53:19;;;;;;;1.80;1.70;;;17.40;69.90;;;;;;5066337;28;20650;-75
2023/07/20 00:55:46;;;;;;;2.37;1.60;;;17.50;70.90;;;;;;5061745;28;20646;-76
2023/07/20 00:58:13;;;;;;;5.23;1.70;;;17.30;70.20;;;;;;5055766;28;20640;-75
2023/07/20 01:00:40;;;;;;;2.53;1.47;;;17.20;70.90;;;;;;5053874;28;20643;-75
2023/07/20 01:03:06;;;;;;;1.90;1.70;;;17.20;71.70;;;;;;5063471;28;20629;-76
2023/07/20 01:05:39;;;;;;;2.03;1.70;;;17.30;71.10;;;;;;5063156;28;20648;-76
2023/07/20 01:08:15;;;;;;;1.43;1.33;;;17.40;70.70;;;;;;5058492;28;20710;-76
2023/07/20 01:10:48;;;;;;;1.77;1.67;;;17.40;71.00;;;;;;5060522;28;21125;-76
2023/07/20 01:13:16;;;;;;;1.10;1.00;;;17.20;73.70;;;;;;5061904;28;21157;-75
2023/07/20 01:15:43;;;;;;;2.33;2.20;;;17.10;72.90;;;;;;5058365;28;20638;-75
2023/07/20 01:18:10;;;;;;;1.77;1.67;;;17.10;73.70;;;;;;5067085;28;20724;-76
2023/07/20 01:20:38;;;;;;;1.43;1.33;;;17.00;73.30;;;;;;5056594;28;20646;-76
2023/07/20 01:23:38;;;;;;;1.43;1.33;;;16.80;73.70;;;;;;5068763;28;20644;-75
2023/07/20 01:26:29;;;;;;;2.67;2.07;;;16.90;75.10;;;;;;5065110;28;21042;-75
2023/07/20 01:29:18;;;;;;;1.67;1.53;;;16.80;74.00;;;;;;5067076;28;21150;-75
2023/07/20 01:31:50;;;;;;;1.30;1.20;;;16.70;75.30;;;;;;5056379;28;20656;-75
2023/07/20 01:34:20;;;;;;;2.17;1.37;;;16.60;75.10;;;;;;5062022;28;20992;-76
2023/07/20 01:36:49;;;;;;;2.00;1.80;;;16.60;75.30;;;;;;5065210;28;21296;-75
2023/07/20 01:39:17;;;;;;;2.23;1.63;;;16.50;76.00;;;;;;5060340;28;20626;-75
2023/07/20 01:41:47;;;;;;;1.30;1.20;;;16.50;75.80;;;;;;5066932;28;20652;-76
2023/07/20 01:44:15;;;;;;;2.50;2.30;;;16.50;75.40;;;;;;5066481;28;21201;-75
2023/07/20 01:46:42;;;;;;;2.87;1.30;;;16.50;76.20;;;;;;5063318;28;20651;-75
2023/07/20 01:49:11;;;;;;;3.10;2.13;;;16.50;75.90;;;;;;5063751;28;20632;-76
2023/07/20 01:51:38;;;;;;;2.20;1.77;;;16.40;76.40;;;;;;5064647;28;21049;-76
2023/07/20 01:54:06;;;;;;;1.70;1.60;;;16.40;76.50;;;;;;5065492;28;20710;-75
2023/07/20 01:56:34;;;;;;;1.47;1.37;;;16.30;76.70;;;;;;5068081;28;20641;-76
2023/07/20 01:59:01;;;;;;;1.97;1.73;;;16.30;76.50;;;;;;5068973;28;20676;-76
2023/07/20 02:01:29;;;;;;;1.90;1.20;;;16.30;77.40;;;;;;5070695;28;21294;-76
2023/07/20 02:03:57;;;;;;;1.57;1.40;;;16.20;77.10;;;;;;5069348;28;20679;-76
2023/07/20 02:06:25;;;;;;;1.60;1.50;;;16.20;78.30;;;;;;5069911;28;20645;-76
2023/07/20 02:08:53;;;;;;;2.00;1.80;;;16.20;77.20;;;;;;5068468;28;20650;-76
2023/07/20 02:11:22;;;;;;;1.90;1.73;;;16.30;77.70;;;;;;5064321;28;20656;-76
2023/07/20 02:13:50;;;;;;;2.97;1.73;;;16.20;78.20;;;;;;5069769;28;20715;-76
2023/07/20 02:16:18;;;;;;;1.90;1.70;;;16.20;78.30;;;;;;5066981;28;21012;-76
2023/07/20 02:18:45;;;;;;;2.40;1.97;;;16.20;78.30;;;;;;5070777;28;21236;-77
2023/07/20 02:21:14;;;;;;;1.80;1.70;;;16.10;79.10;;;;;;5069864;28;20648;-76
2023/07/20 02:23:42;;;;;;;2.93;1.60;;;16.10;79.00;;;;;;5068821;28;20699;-75
2023/07/20 02:26:09;;;;;;;2.27;2.00;;;16.20;79.20;;;;;;5072801;28;20645;-76
2023/07/20 02:28:36;;;;;;;10.20;1.40;;;16.20;80.50;;;;;;5066040;28;20622;-76
2023/07/20 02:31:03;;;;;;;1.83;1.73;;;16.20;78.40;;;;;;5068864;28;21216;-76
2023/07/20 02:33:30;;;;;;;2.30;2.00;;;16.20;79.00;;;;;;5061298;28;20678;-76
2023/07/20 02:35:57;;;;;;;1.77;1.27;;;16.10;80.50;;;;;;5064891;28;21034;-76
2023/07/20 02:38:24;;;;;;;2.37;1.70;;;16.00;80.80;;;;;;5065856;28;20728;-76
2023/07/20 02:40:53;;;;;;;2.47;1.80;;;15.90;80.60;;;;;;5064944;28;20652;-76
2023/07/20 02:43:20;;;;;;;1.90;1.20;;;15.90;81.40;;;;;;5068166;28;20628;-76
2023/07/20 02:45:49;;;;;;;1.50;1.40;;;15.80;82.00;;;;;;5059175;28;20652;-76
2023/07/20 02:48:16;;;;;;;1.70;1.50;;;15.90;81.60;;;;;;5071884;28;20628;-76
2023/07/20 02:50:45;;;;;;;2.57;1.43;;;15.90;83.00;;;;;;5058451;28;20745;-76
2023/07/20 02:53:12;;;;;;;5.13;1.67;;;15.80;82.50;;;;;;5060597;28;20719;-75
2023/07/20 02:55:39;;;;;;;1.67;1.50;;;15.90;82.30;;;;;;5059845;28;20646;-76
2023/07/20 02:58:07;;;;;;;2.27;1.80;;;15.80;82.10;;;;;;5067054;28;20629;-76
2023/07/20 03:00:34;;;;;;;2.00;1.90;;;15.70;82.50;;;;;;5063975;28;20638;-74
2023/07/20 03:03:03;;;;;;;1.40;1.30;;;15.70;82.60;;;;;;5063422;28;20724;-74
2023/07/20 03:05:31;;;;;;;2.73;1.43;;;15.70;82.60;;;;;;5062446;28;20646;-74
2023/07/20 03:08:03;;;;;;;2.00;1.67;;;15.70;82.60;;;;;;5063686;28;20645;-74
2023/07/20 03:10:30;;;;;;;1.80;1.40;;;15.70;83.50;;;;;;5064610;28;20976;-75
2023/07/20 03:12:58;;;;;;;1.93;1.63;;;15.70;84.20;;;;;;5065165;28;21256;-76
2023/07/20 03:15:29;;;;;;;2.53;2.03;;;15.80;83.30;;;;;;5063349;28;20641;-75
2023/07/20 03:17:58;;;;;;;1.60;1.47;;;15.80;83.50;;;;;;5057233;28;20636;-75
2023/07/20 03:20:25;;;;;;;2.43;1.87;;;15.70;83.20;;;;;;5062653;28;20684;-76
2023/07/20 03:22:53;;;;;;;2.60;1.00;;;15.80;84.20;;;;;;5056628;28;20720;-76
2023/07/20 03:25:21;;;;;;;2.30;1.63;;;15.80;83.50;;;;;;5060069;28;20606;-75
2023/07/20 03:27:49;;;;;;;1.43;1.30;;;15.80;83.80;;;;;;5054369;28;20639;-76
2023/07/20 03:30:18;;;;;;;1.27;1.17;;;15.80;84.10;;;;;;5056792;28;20626;-76
2023/07/20 03:32:47;;;;;;;2.20;1.77;;;15.80;84.10;;;;;;5062058;28;20633;-76
2023/07/20 03:35:15;;;;;;;1.87;1.43;;;15.80;84.00;;;;;;5062579;28;20629;-76
2023/07/20 03:37:43;;;;;;;2.00;1.60;;;15.80;84.60;;;;;;5061892;28;20687;-76
2023/07/20 03:40:12;;;;;;;2.33;1.63;;;15.80;84.50;;;;;;5064624;28;20653;-76
2023/07/20 03:42:39;;;;;;;1.50;1.40;;;15.80;84.70;;;;;;5061102;28;20627;-76
2023/07/20 03:45:07;;;;;;;1.70;1.60;;;15.80;84.80;;;;;;5061253;28;20848;-76
2023/07/20 03:47:34;;;;;;;3.50;1.10;;;15.80;84.20;;;;;;5061532;28;20632;-76
2023/07/20 03:50:03;;;;;;;1.40;1.30;;;15.80;83.80;;;;;;5061156;28;21019;-75
2023/07/20 03:52:30;;;;;;;1.63;1.53;;;15.90;84.40;;;;;;5064438;28;20630;-75
2023/07/20 03:54:56;;;;;;;2.10;1.90;;;15.90;83.60;;;;;;5063117;28;21174;-76
2023/07/20 03:57:23;;;;;;;2.30;2.00;;;15.90;83.30;;;;;;5062347;28;20999;-75
2023/07/20 03:59:50;;;;;;;2.17;1.40;;;15.90;83.30;;;;;;5063228;28;20630;-77
2023/07/20 04:02:17;;;;;;;3.27;1.43;;;15.90;82.90;;;;;;5062538;28;20649;-77
2023/07/20 04:04:44;;;;;;;1.90;1.80;;;15.90;84.10;;;;;;5054690;28;21324;-78
2023/07/20 04:07:12;;;;;;;1.90;1.67;;;15.90;85.00;;;;;;5060784;28;20714;-78
2023/07/20 04:09:38;;;;;;;1.67;1.57;;;15.90;85.30;;;;;;5051562;28;20637;-78
2023/07/20 04:12:06;;;;;;;3.17;1.90;;;16.00;84.40;;;;;;5048362;28;20731;-78
2023/07/20 04:14:33;;;;;;;1.63;1.53;;;16.00;84.20;;;;;;5059391;28;20658;-79
2023/07/20 04:17:00;;;;;;;1.43;1.30;;;16.00;83.70;;;;;;5053665;28;20749;-80
2023/07/20 04:19:27;;;;;;;2.20;1.57;;;16.10;84.50;;;;;;5054301;28;20635;-80
2023/07/20 04:21:54;;;;;;;2.57;1.87;;;16.00;85.90;;;;;;5061007;28;20761;-79
2023/07/20 04:24:22;;;;;;;2.37;1.73;;;16.20;84.50;;;;;;5055600;28;21253;-79
2023/07/20 04:26:49;;;;;;;2.13;1.93;;;16.20;84.70;;;;;;5060540;28;20650;-79
2023/07/20 04:29:16;;;;;;;1.60;1.50;;;16.30;85.00;;;;;;5065418;28;20732;-80
2023/07/20 04:31:42;;;;;;;8.50;2.20;;;16.30;84.90;;;;;;5055834;28;20658;-79
2023/07/20 04:34:09;;;;;;;2.10;1.53;;;16.20;85.10;;;;;;5061916;28;20653;-79
2023/07/20 04:36:36;;;;;;;1.93;1.60;;;16.40;84.50;;;;;;5066489;28;20646;-78
2023/07/20 04:39:04;;;;;;;2.73;1.40;;;16.50;85.30;;;;;;5062542;28;20635;-78
2023/07/20 04:41:32;;;;;;;2.17;1.97;;;16.70;84.60;;;;;;5058920;28;20757;-79
2023/07/20 04:43:59;;;;;;;1.60;1.50;;;16.80;86.00;;;;;;5055751;28;20880;-77
2023/07/20 04:46:26;;;;;;;2.63;2.27;;;16.80;86.50;;;;;;5063908;28;20644;-78
2023/07/20 04:48:52;;;;;;;2.17;1.93;;;16.80;84.20;;;;;;5056131;28;20633;-77
2023/07/20 04:51:20;;;;;;;4.73;2.63;;;16.90;84.20;;;;;;5056102;28;21325;-77
2023/07/20 04:53:47;;;;;;;1.80;1.33;;;17.00;85.20;;;;;;5063615;28;20653;-78
2023/07/20 04:56:15;;;;;;;1.43;1.30;;;17.10;86.40;;;;;;5058725;28;20879;-80
2023/07/20 04:58:43;;;;;;;2.90;1.63;;;17.10;85.20;;;;;;5060495;28;20630;-78
2023/07/20 05:01:10;;;;;;;9.63;1.50;;;17.10;85.80;;;;;;5067161;28;20756;-80
2023/07/20 05:03:36;;;;;;;1.50;1.40;;;17.10;84.30;;;;;;5067117;28;20618;-78
2023/07/20 05:06:03;;;;;;;1.87;1.50;;;17.20;83.80;;;;;;5067432;28;20653;-82
2023/07/20 05:08:30;;;;;;;2.60;1.50;;;17.30;82.30;;;;;;5067729;28;20644;-75
2023/07/20 05:10:57;;;;;;;3.60;1.53;;;17.40;81.70;;;;;;5067495;28;20649;-77
2023/07/20 05:13:24;;;;;;;1.67;1.47;;;17.40;80.90;;;;;;5063499;28;20637;-78
2023/07/20 05:15:54;;;;;;;2.00;1.53;;;17.30;81.70;;;;;;5060773;28;21324;-78
2023/07/20 05:18:21;;;;;;;2.77;1.40;;;17.40;81.70;;;;;;5066533;28;20666;-78
2023/07/20 05:20:48;;;;;;;1.77;1.67;;;17.40;81.90;;;;;;5066213;28;20641;-78
2023/07/20 05:23:15;;;;;;;2.57;1.73;;;17.40;81.90;;;;;;5066625;28;20630;-78
2023/07/20 05:25:41;;;;;;;1.77;1.67;;;17.40;82.10;;;;;;5059071;28;20649;-83
2023/07/20 05:28:08;;;;;;;1.50;1.40;;;17.50;80.70;;;;;;5062823;28;20617;-83
2023/07/20 05:30:35;;;;;;;1.93;1.50;;;17.60;81.30;;;;;;5065482;28;21229;-81
2023/07/20 05:33:03;;;;;;;2.00;1.90;;;17.70;81.80;;;;;;5065121;28;20634;-81
2023/07/20 05:35:30;;;;;;;1.23;1.13;;;17.80;82.40;;;;;;5067170;28;20665;-80
2023/07/20 05:37:57;;;;;;;1.97;1.50;;;17.90;81.90;;;;;;5066152;28;20634;-80
2023/07/20 05:40:24;;;;;;;2.33;1.60;;;18.00;82.30;;;;;;5066892;28;20682;-80
2023/07/20 05:42:51;;;;;;;1.53;1.43;;;18.00;79.40;;;;;;5066228;28;20643;-80
2023/07/20 05:45:20;;;;;;;1.50;1.33;;;18.10;80.40;;;;;;5066890;28;20633;-80
2023/07/20 05:47:47;;;;;;;3.27;1.60;;;18.20;78.90;;;;;;5064664;28;20624;-81
2023/07/20 05:50:15;;;;;;;3.83;1.70;;;18.10;76.90;;;;;;5058795;28;20621;-79
2023/07/20 05:52:42;;;;;;;2.40;1.90;;;18.10;77.40;;;;;;5067641;28;20624;-80
2023/07/20 05:55:09;;;;;;;1.63;1.53;;;18.00;77.60;;;;;;5062977;28;20803;-80
2023/07/20 05:57:39;;;;;;;2.60;1.80;;;18.30;78.80;;;;;;5067565;28;20720;-80
2023/07/20 06:00:07;;;;;;;2.43;1.70;;;18.10;77.00;;;;;;5066298;28;20636;-80
2023/07/20 06:02:34;;;;;;;1.60;1.50;;;18.20;78.10;;;;;;5055776;28;20637;-80
2023/07/20 06:05:01;;;;;;;1.80;1.70;;;18.20;78.30;;;;;;5066732;28;20625;-80
2023/07/20 06:07:31;;;;;;;2.10;1.87;;;18.30;78.70;;;;;;5067354;28;20633;-79
2023/07/20 06:10:00;;;;;;;2.40;1.73;;;18.50;78.70;;;;;;5067063;28;20728;-80
2023/07/20 06:12:27;;;;;;;3.93;2.50;;;18.50;79.10;;;;;;5065336;28;20688;-81
2023/07/20 06:14:54;;;;;;;2.03;1.80;;;18.50;78.60;;;;;;5067906;28;20661;-80
2023/07/20 06:17:21;;;;;;;2.00;1.50;;;18.50;78.40;;;;;;5062529;28;20651;-82
2023/07/20 06:19:48;;;;;;;1.90;1.33;;;18.60;76.70;;;;;;5065109;28;20656;-81
2023/07/20 06:36:49;;;;;;;3.00;1.70;;;18.70;77.60;;;;;;4951903;28;20854;-82
2023/07/20 06:39:25;;;;;;;1.40;1.30;;;18.90;78.20;;;;;;5018722;28;20620;-83
2023/07/20 06:41:51;;;;;;;2.53;1.73;;;19.00;76.80;;;;;;5057113;28;20655;-79
2023/07/20 06:44:18;;;;;;;1.73;1.53;;;19.10;76.80;;;;;;5059326;28;20622;-79
2023/07/20 06:46:45;;;;;;;1.33;1.23;;;19.00;76.90;;;;;;5062846;28;20737;-82
2023/07/20 06:49:25;;;;;;;4.77;1.53;;;19.00;76.70;;;;;;5060529;28;20630;-80
2023/07/20 06:51:56;;;;;;;1.30;1.20;;;19.00;78.50;;;;;;5066957;28;21218;-80
2023/07/20 06:54:23;;;;;;;2.63;1.67;;;19.10;77.30;;;;;;5067215;28;20999;-79
2023/07/20 06:56:49;;;;;;;2.00;1.50;;;19.30;77.80;;;;;;5068683;28;21247;-79
2023/07/20 06:59:17;;;;;;;1.53;1.43;;;19.30;76.60;;;;;;5069737;28;20995;-80
2023/07/20 07:01:44;;;;;;;1.50;1.40;;;19.30;76.90;;;;;;5063995;28;20745;-80
2023/07/20 07:04:11;;;;;;;2.30;1.10;;;19.30;77.80;;;;;;5068739;28;21245;-81
2023/07/20 07:10:58;;;;;;;1.87;1.20;;;19.50;77.00;;;;;;4988940;28;21224;-81
2023/07/20 07:13:26;;;;;;;1.50;1.40;;;19.70;74.60;;;;;;5018244;28;21214;-81
2023/07/20 07:16:07;;;;;;;1.70;1.57;;;19.70;75.30;;;;;;5015752;28;20675;-79
2023/07/20 07:18:34;;;;;;;1.73;1.10;;;19.80;76.70;;;;;;5008190;28;20640;-80
2023/07/20 07:21:01;;;;;;;1.73;1.60;;;20.00;75.60;;;;;;5011222;28;20664;-79
2023/07/20 07:23:28;;;;;;;2.43;1.53;;;20.30;74.70;;;;;;5018424;28;20637;-79
2023/07/20 07:29:39;;;;;;;2.13;1.90;;;20.00;74.90;;;;;;5060549;28;20587;-81
2023/07/20 07:32:07;;;;;;;1.70;1.30;;;20.10;75.00;;;;;;5060360;28;20740;-77
2023/07/20 07:34:36;;;;;;;3.00;1.70;;;20.10;74.00;;;;;;5058716;28;20757;-81
2023/07/20 07:37:04;;;;;;;4.63;1.90;;;20.40;74.30;;;;;;5057981;28;20654;-79
2023/07/20 07:39:38;;;;;;;2.17;1.63;;;20.30;72.10;;;;;;5062349;28;20620;-78
2023/07/20 07:42:05;;;;;;;2.13;1.93;;;20.30;74.00;;;;;;5064586;28;20665;-78
2023/07/20 07:44:32;;;;;;;1.60;1.50;;;20.40;72.90;;;;;;5060062;28;20627;-78
2023/07/20 07:47:00;;;;;;;1.77;1.67;;;20.40;72.50;;;;;;5061751;28;20648;-78
2023/07/20 07:49:27;;;;;;;2.20;1.47;;;20.60;72.80;;;;;;5057302;28;20649;-78
2023/07/20 07:51:54;;;;;;;2.63;1.40;;;20.80;71.50;;;;;;5060649;28;20756;-78
2023/07/20 07:54:21;;;;;;;1.60;1.50;;;20.80;70.70;;;;;;5059200;28;20689;-78
2023/07/20 07:56:48;;;;;;;1.70;1.60;;;20.60;70.60;;;;;;5059770;28;21005;-78
2023/07/20 07:59:14;;;;;;;2.30;1.83;;;20.70;71.50;;;;;;5060487;28;20638;-80
2023/07/20 08:01:44;;;;;;;3.83;1.83;;;20.70;71.20;;;;;;5057307;28;21245;-81
2023/07/20 08:04:13;;;;;;;2.70;1.40;;;20.60;69.90;;;;;;5059671;28;20682;-79
2023/07/20 08:07:17;;;;;;;3.63;1.70;;;20.50;71.10;;;;;;5056722;28;21283;-81
2023/07/20 08:09:43;;;;;;;1.73;1.53;;;20.60;70.30;;;;;;5059785;28;20642;-78
2023/07/20 08:12:10;;;;;;;2.07;1.87;;;20.80;70.00;;;;;;5061151;28;20641;-78
2023/07/20 08:14:37;;;;;;;1.47;1.37;;;21.10;70.90;;;;;;5059074;28;20668;-79
2023/07/20 08:17:04;;;;;;;2.13;1.60;;;21.40;70.00;;;;;;5061014;28;20693;-79
2023/07/20 08:19:33;;;;;;;2.00;1.90;;;21.70;70.10;;;;;;5057989;28;20646;-78
2023/07/20 08:25:58;;;;;;;2.20;1.60;;;21.60;67.50;;;;;;4953429;28;20739;-81
2023/07/20 08:28:26;;;;;;;2.30;2.20;;;21.30;68.30;;;;;;5000304;28;20694;-82
2023/07/20 08:30:53;;;;;;;2.53;1.73;;;21.50;68.10;;;;;;5055254;28;20647;-78
2023/07/20 08:33:21;;;;;;;1.70;1.60;;;21.60;69.80;;;;;;5057591;28;20722;-81
2023/07/20 08:35:49;;;;;;;2.10;1.87;;;21.80;68.40;;;;;;5060127;28;20695;-78
2023/07/20 08:38:31;;;;;;;2.10;1.90;;;22.20;67.60;;;;;;5059417;28;20625;-79
2023/07/20 08:41:33;;;;;;;1.73;1.63;;;22.40;64.90;;;;;;5055940;28;20701;-80
2023/07/20 08:44:01;;;;;;;2.00;1.80;;;22.30;64.30;;;;;;5053500;28;20632;-80
2023/07/20 08:46:32;;;;;;;1.80;1.70;;;22.10;64.50;;;;;;5062168;28;20648;-79
2023/07/20 08:48:59;;;;;;;1.50;1.40;;;21.90;63.50;;;;;;5056473;28;20633;-80
2023/07/20 08:51:27;;;;;;;2.37;1.90;;;21.70;66.30;;;;;;5058829;28;20738;-79
2023/07/20 08:53:58;;;;;;;2.50;2.17;;;21.70;66.50;;;;;;5059183;28;20706;-81
2023/07/20 08:56:26;;;;;;;2.20;1.80;;;21.60;64.90;;;;;;5060731;28;20667;-78
2023/07/20 08:59:13;;;;;;;1.80;1.60;;;21.50;65.30;;;;;;5060471;28;20665;-83
2023/07/20 09:01:41;;;;;;;2.37;1.63;;;21.60;66.20;;;;;;5056729;28;20660;-80
2023/07/20 09:04:08;;;;;;;2.17;1.97;;;22.00;65.60;;;;;;5065011;28;20619;-80
2023/07/20 09:06:37;;;;;;;2.07;1.83;;;22.20;64.50;;;;;;5063231;28;20853;-80
2023/07/20 09:09:04;;;;;;;1.80;1.70;;;22.50;65.70;;;;;;5064960;28;20619;-81
2023/07/20 09:11:30;;;;;;;1.67;1.50;;;22.80;64.30;;;;;;5063476;28;20756;-80
2023/07/20 09:14:05;;;;;;;3.87;1.73;;;22.60;62.70;;;;;;5066438;28;20731;-81
2023/07/20 09:16:32;;;;;;;2.77;2.10;;;22.70;62.00;;;;;;5067632;28;20676;-80
2023/07/20 09:18:59;;;;;;;4.67;2.47;;;22.80;63.30;;;;;;5067177;28;20630;-80
2023/07/20 09:21:30;;;;;;;1.53;1.43;;;22.70;61.00;;;;;;5066444;28;20964;-80
2023/07/20 09:23:59;;;;;;;1.57;1.47;;;22.60;61.00;;;;;;5066638;28;20640;-81
2023/07/20 09:26:26;;;;;;;3.00;1.60;;;22.90;61.30;;;;;;5060318;28;21301;-81
2023/07/20 09:28:54;;;;;;;1.10;1.10;;;23.20;61.10;;;;;;5062243;28;21274;-80
2023/07/20 09:31:22;;;;;;;3.50;1.90;;;23.40;59.50;;;;;;5064562;28;21584;-81
2023/07/20 09:33:50;;;;;;;2.20;1.80;;;23.20;59.20;;;;;;5066684;28;20623;-81
2023/07/20 09:36:17;;;;;;;2.97;2.00;;;23.40;61.20;;;;;;5066245;28;20747;-80
2023/07/20 09:38:44;;;;;;;1.93;1.70;;;23.20;59.50;;;;;;5062995;28;21169;-81
2023/07/20 09:41:17;;;;;;;2.67;1.27;;;22.80;59.20;;;;;;5061033;28;20663;-81
2023/07/20 09:43:44;;;;;;;5.60;1.83;;;22.70;61.30;;;;;;5067409;28;20653;-79
2023/07/20 09:46:10;;;;;;;1.80;1.70;;;22.40;59.90;;;;;;5070663;28;20655;-78
2023/07/20 09:48:37;;;;;;;1.90;1.20;;;22.40;59.70;;;;;;5069542;28;20844;-79
2023/07/20 09:51:06;;;;;;;1.60;1.47;;;22.10;60.50;;;;;;5065480;28;20723;-79
2023/07/20 09:53:33;;;;;;;1.10;1.10;;;22.30;60.00;;;;;;5070189;28;20974;-80
2023/07/20 09:56:00;;;;;;;1.40;1.30;;;22.40;59.50;;;;;;5070271;28;20864;-80
2023/07/20 09:58:29;;;;;;;2.73;1.17;;;22.60;60.40;;;;;;5068233;28;20965;-79
2023/07/20 10:01:04;;;;;;;4.93;1.60;;;22.80;59.30;;;;;;5059708;28;21016;-79
2023/07/20 10:03:32;;;;;;;1.63;1.27;;;23.20;58.80;;;;;;5069884;28;20663;-79
2023/07/20 10:06:06;;;;;;;1.80;1.47;;;23.50;57.50;;;;;;5063467;28;20755;-80
2023/07/20 10:08:35;;;;;;;1.40;1.27;;;23.60;57.70;;;;;;5065900;28;20653;-79
2023/07/20 10:11:04;;;;;;;4.20;1.43;;;24.00;57.70;;;;;;5069761;28;21094;-78
2023/07/20 10:13:33;;;;;;;2.00;1.27;;;24.20;57.00;;;;;;5067996;28;20626;-78
2023/07/20 10:16:04;;;;;;;2.20;1.57;;;24.40;57.00;;;;;;5070081;28;20666;-78
2023/07/20 10:18:36;;;;;;;1.50;1.30;;;24.50;56.20;;;;;;5069855;28;21001;-78
2023/07/20 10:21:03;;;;;;;2.10;1.90;;;24.30;56.40;;;;;;5067212;28;21284;-79
2023/07/20 10:23:31;;;;;;;2.00;1.77;;;23.70;54.30;;;;;;5069280;28;20624;-78
2023/07/20 10:25:59;;;;;;;1.30;1.20;;;23.30;56.30;;;;;;5063331;28;20752;-77
2023/07/20 10:28:27;;;;;;;2.00;1.27;;;23.10;56.80;;;;;;5068315;28;20630;-77
2023/07/20 10:30:55;;;;;;;1.50;1.40;;;22.90;57.50;;;;;;5069073;28;20773;-77
2023/07/20 10:33:22;;;;;;;1.93;1.40;;;23.10;58.60;;;;;;5065057;28;20638;-78
2023/07/20 10:35:53;;;;;;;2.30;1.00;;;23.40;58.30;;;;;;5069688;28;20662;-78
2023/07/20 10:38:20;;;;;;;1.00;1.00;;;23.80;57.40;;;;;;5062746;28;20639;-78
2023/07/20 10:40:56;;;;;;;2.80;1.60;;;24.00;55.90;;;;;;5058069;28;20652;-78
2023/07/20 10:43:22;;;;;;;1.13;1.03;;;24.10;55.90;;;;;;5065232;28;20628;-78
2023/07/20 10:45:50;;;;;;;3.50;1.30;;;24.50;56.70;;;;;;5069010;28;20644;-78
2023/07/20 10:48:20;;;;;;;1.40;1.30;;;25.00;56.90;;;;;;5070112;28;20980;-77
2023/07/20 10:51:02;;;;;;;3.10;1.40;;;24.80;53.70;;;;;;5061489;28;20646;-78
2023/07/20 10:53:31;;;;;;;1.67;1.43;;;25.10;56.10;;;;;;5066824;28;20653;-85
2023/07/20 10:56:08;;;;;;;0.93;0.93;;;25.20;53.50;;;;;;5067671;28;20663;-84
2023/07/20 11:01:18;;;;;;;2.60;1.20;;;24.50;54.20;;;;;;5063288;28;20659;-84
2023/07/20 11:03:51;;;;;;;1.67;1.20;;;24.60;56.20;;;;;;5068231;28;21218;-85
2023/07/20 11:06:34;;;;;;;2.23;1.53;;;25.00;54.60;;;;;;5067913;28;20678;-82
2023/07/20 11:09:07;;;;;;;1.27;1.17;;;25.60;55.50;;;;;;5057693;28;21259;-84
2023/07/20 11:11:36;;;;;;;1.53;1.40;;;25.80;53.40;;;;;;5062203;28;21202;-85
2023/07/20 11:14:03;;;;;;;1.73;1.20;;;25.90;52.00;;;;;;5065844;28;21317;-80
2023/07/20 11:16:41;;;;;;;1.40;1.30;;;25.70;51.00;;;;;;5064530;28;20657;-79
2023/07/20 11:19:18;;;;;;;1.30;1.20;;;25.40;52.10;;;;;;5063815;28;20637;-78
2023/07/20 11:21:46;;;;;;;2.20;1.40;;;26.00;53.30;;;;;;5068393;28;20652;-79
2023/07/20 11:24:14;;;;;;;1.60;1.07;;;26.20;51.20;;;;;;5068146;28;20630;-79
2023/07/20 11:26:42;;;;;;;1.10;1.00;;;26.50;50.50;;;;;;5064002;28;20652;-78
2023/07/20 11:29:09;;;;;;;1.20;1.10;;;26.50;51.60;;;;;;5067223;28;20632;-79
2023/07/20 11:31:37;;;;;;;1.00;1.00;;;26.50;51.70;;;;;;5068678;28;20679;-79
2023/07/20 11:34:04;;;;;;;1.50;1.20;;;26.50;50.10;;;;;;5063463;28;20632;-79
2023/07/20 11:36:32;;;;;;;1.40;1.30;;;26.40;48.50;;;;;;5069024;28;20654;-79
2023/07/20 11:39:00;;;;;;;0.97;0.90;;;26.70;50.50;;;;;;5068879;28;20633;-79
2023/07/20 11:41:26;;;;;;;1.30;1.07;;;27.10;50.00;;;;;;5068348;28;20645;-79
2023/07/20 11:43:55;;;;;;;1.47;0.97;;;27.80;49.80;;;;;;5068127;28;21016;-79
2023/07/20 11:46:21;;;;;;;1.33;1.23;;;28.10;49.60;;;;;;5068254;28;20639;-79
2023/07/20 11:48:51;;;;;;;2.40;1.10;;;28.00;48.40;;;;;;5068072;28;20630;-79
2023/07/20 11:51:19;;;;;;;1.30;0.90;;;28.00;45.50;;;;;;5052549;28;20688;-79
2023/07/20 11:53:48;;;;;;;1.00;1.00;;;28.20;46.90;;;;;;5059336;28;20629;-79
2023/07/20 11:56:15;;;;;;;1.50;1.07;;;28.60;46.60;;;;;;5049835;28;20645;-79
2023/07/20 11:58:45;;;;;;;1.27;1.17;;;29.00;46.40;;;;;;5059835;28;20622;-78
2023/07/20 12:01:13;;;;;;;0.83;0.83;;;29.10;45.90;;;;;;5064617;28;20659;-78
2023/07/20 12:03:40;;;;;;;1.00;0.90;;;29.70;45.10;;;;;;5067481;28;20621;-79
2023/07/20 12:06:08;;;;;;;1.00;0.90;;;30.10;43.10;;;;;;5067479;28;20651;-80
2023/07/20 12:08:35;;;;;;;1.37;1.13;;;30.80;44.30;;;;;;5065491;28;20636;-79
2023/07/20 12:11:04;;;;;;;1.07;0.97;;;31.10;44.40;;;;;;5056505;28;21264;-79
2023/07/20 12:13:38;;;;;;;1.10;1.00;;;31.30;42.40;;;;;;5058494;28;20676;-79
2023/07/20 12:16:12;;;;;;;0.80;0.73;;;32.20;41.00;;;;;;5068226;28;20668;-76
2023/07/20 12:18:39;;;;;;;1.07;1.03;;;32.00;40.20;;;;;;5061573;28;20637;-78
2023/07/20 12:21:07;;;;;;;1.00;0.90;;;31.30;41.60;;;;;;5066388;28;20653;-77
2023/07/20 12:23:38;;;;;;;1.10;1.00;;;31.30;43.40;;;;;;5066135;28;21116;-78
2023/07/20 12:26:09;;;;;;;1.50;1.07;;;31.80;41.60;;;;;;5058345;28;20652;-79
2023/07/20 12:28:40;;;;;;;0.97;0.80;;;32.70;39.00;;;;;;5068912;28;20666;-81
2023/07/20 12:31:07;;;;;;;2.00;0.83;;;33.10;40.50;;;;;;5066553;28;20654;-78
2023/07/20 12:33:34;;;;;;;1.07;0.93;;;33.80;38.90;;;;;;5067651;28;21161;-78
2023/07/20 12:36:01;;;;;;;1.20;1.20;;;34.00;37.50;;;;;;5067782;28;20759;-78
2023/07/20 12:38:28;;;;;;;1.00;1.00;;;34.40;37.90;;;;;;5057840;28;20648;-78
2023/07/20 12:40:56;;;;;;;1.73;0.93;;;35.30;37.00;;;;;;5065354;28;20676;-78
2023/07/20 12:43:24;;;;;;;1.10;1.00;;;36.00;36.10;;;;;;5062418;28;20675;-79
2023/07/20 12:45:51;;;;;;;1.37;1.27;;;35.70;36.50;;;;;;5067130;28;20229;-79
2023/07/20 12:48:18;;;;;;;0.90;0.90;;;33.90;36.50;;;;;;5067170;28;20629;-79
2023/07/20 12:50:44;;;;;;;1.07;0.97;;;31.90;38.70;;;;;;5058597;28;20640;-76
2023/07/20 12:53:13;;;;;;;0.80;0.80;;;32.90;39.30;;;;;;5066429;28;20957;-79
2023/07/20 12:55:40;;;;;;;2.20;1.20;;;32.80;37.60;;;;;;5065648;28;20656;-78
2023/07/20 12:58:45;;;;;;;1.90;1.20;;;34.30;38.00;;;;;;5066963;28;20625;-78
2023/07/20 13:01:13;;;;;;;1.13;1.00;;;33.10;36.10;;;;;;5050397;28;20771;-78
2023/07/20 13:03:40;;;;;;;1.10;1.00;;;33.30;38.70;;;;;;5062795;28;20621;-78
2023/07/20 13:06:07;;;;;;;1.20;1.10;;;33.80;38.60;;;;;;5061346;28;20780;-77
2023/07/20 13:08:34;;;;;;;1.43;1.20;;;34.20;37.00;;;;;;5061492;28;20694;-78
2023/07/20 13:11:01;;;;;;;1.20;1.10;;;34.00;35.80;;;;;;5064230;28;20660;-78
2023/07/20 13:13:28;;;;;;;1.13;0.93;;;34.20;37.60;;;;;;5064517;28;20642;-77
2023/07/20 13:15:56;;;;;;;1.20;1.10;;;35.10;36.00;;;;;;5061540;28;21098;-77
2023/07/20 13:18:24;;;;;;;1.27;1.17;;;35.10;34.50;;;;;;5065926;28;20724;-79
2023/07/20 13:20:50;;;;;;;1.00;1.00;;;34.70;35.40;;;;;;5059666;28;20585;-77
2023/07/20 13:23:17;;;;;;;0.90;0.90;;;34.70;35.60;;;;;;5067122;28;20736;-76
2023/07/20 13:25:44;;;;;;;4.10;1.17;;;34.70;36.60;;;;;;5061318;28;20676;-77